KSPS/SPS METAR and TAF weather

Enter ICAO airport designator
Station Type Date Time Source
KSPS METAR 2021/05/14 03:52 UTC NOAA

KSPS 140352Z 16008KT 10SM OVC055 16/13 A3024 RMK AO2 SLP233 T01560128


Station Type Date Time Source
KSPS Decoded METAR 2021/05/14 03:52 UTC NOAA

WICHITA FALLS SHEPPARD AFB, TX, United States (KSPS) 33-59N 98-30W 308M
May 13, 2021 - 11:52 PM EDT / 2021.05.14 0352 UTC
Wind: from the SSE (160 degrees) at 9 MPH (8 KT):0
Visibility: 10 mile(s):0
Sky conditions: overcast
Temperature: 60.1 F (15.6 C)
Dew Point: 55.0 F (12.8 C)
Relative Humidity: 83%
Pressure (altimeter): 30.24 in. Hg (1024 hPa)
ob: KSPS 140352Z 16008KT 10SM OVC055 16/13 A3024 RMK AO2 SLP233 T01560128
cycle: 4

Station Type Date Time Source
KSPS TAF 2021/05/13 18:46 UTC NOAA

TAF KSPS 131744Z 1318/1418 16006KT P6SM BKN040
FM132100 13008KT P6SM SCT040 SCT180
FM140900 16007KT P6SM SCT040 SCT150
FM141300 18011G18KT P6SM FEW120 SCT250

Example: see airport list